Time;durP1;ratioP1;P1;durP2;ratioP2;P2;SDS_P1;SDS_P2;PMS_P1;PMS_P2;Temp;Humidity;BMP_temperature;BMP_pressure;BME280_temperature;BME280_humidity;BME280_pressure;Samples;Min_cycle;Max_cycle;Signal;HPM_P1;HPM_P2
2021/06/27 00:00:18;;;;;;;4.80;4.03;;;25.30;57.20;;;;;;5031998;28;20030;-59
2021/06/27 00:02:45;;;;;;;6.85;4.93;;;25.30;57.20;;;;;;5027199;28;20486;-59
2021/06/27 00:05:14;;;;;;;4.78;4.38;;;25.30;57.20;;;;;;5012177;28;20033;-59
2021/06/27 00:07:40;;;;;;;4.47;4.07;;;25.30;57.10;;;;;;5011231;28;20030;-60
2021/06/27 00:10:10;;;;;;;4.70;4.30;;;25.30;57.20;;;;;;5022077;28;20116;-60
2021/06/27 00:12:36;;;;;;;5.45;3.83;;;25.30;57.10;;;;;;5031595;28;20044;-60
2021/06/27 00:15:06;;;;;;;7.60;4.50;;;25.30;57.10;;;;;;5030769;28;20104;-59
2021/06/27 00:17:32;;;;;;;4.55;4.00;;;25.30;57.10;;;;;;5031473;28;20344;-59
2021/06/27 00:19:58;;;;;;;5.18;4.45;;;25.30;57.10;;;;;;5030292;28;20045;-59
2021/06/27 00:22:23;;;;;;;4.50;4.03;;;25.30;57.10;;;;;;5029910;28;20037;-59
2021/06/27 00:24:49;;;;;;;5.38;4.10;;;25.30;57.10;;;;;;5030395;28;20084;-59
2021/06/27 00:27:14;;;;;;;4.70;4.18;;;25.30;57.00;;;;;;5031722;28;20057;-59
2021/06/27 00:29:40;;;;;;;5.53;4.45;;;25.30;57.00;;;;;;5034041;28;20113;-59
2021/06/27 00:32:06;;;;;;;5.47;4.60;;;25.30;57.00;;;;;;5034896;28;20116;-61
2021/06/27 00:34:32;;;;;;;5.18;4.47;;;25.30;57.00;;;;;;5016005;28;20468;-60
2021/06/27 00:36:58;;;;;;;5.00;4.60;;;25.30;57.00;;;;;;5014445;28;20030;-60
2021/06/27 00:39:23;;;;;;;5.43;4.32;;;25.30;57.00;;;;;;5019225;28;20104;-60
2021/06/27 00:41:49;;;;;;;5.35;4.47;;;25.30;57.00;;;;;;5034240;28;20029;-60
2021/06/27 00:44:20;;;;;;;5.00;4.18;;;25.30;57.00;;;;;;5034942;28;20467;-60
2021/06/27 00:46:53;;;;;;;5.53;5.00;;;25.30;56.90;;;;;;5034287;28;20030;-59
2021/06/27 00:49:20;;;;;;;4.53;4.10;;;25.30;56.90;;;;;;5034740;28;20034;-60
2021/06/27 00:51:47;;;;;;;4.50;4.10;;;25.30;56.90;;;;;;5034038;28;20084;-60
2021/06/27 00:54:12;;;;;;;4.47;4.07;;;25.30;56.80;;;;;;5034620;28;20394;-59
2021/06/27 00:56:38;;;;;;;4.97;4.47;;;25.30;56.80;;;;;;5034212;28;20029;-60
2021/06/27 00:59:04;;;;;;;5.00;4.50;;;25.30;56.80;;;;;;5033374;28;20501;-59
2021/06/27 01:01:29;;;;;;;5.55;4.95;;;25.30;56.80;;;;;;5034997;28;20025;-59
2021/06/27 01:03:55;;;;;;;6.75;4.22;;;25.30;56.80;;;;;;5020645;28;20030;-59
2021/06/27 01:06:21;;;;;;;5.07;4.25;;;25.30;56.80;;;;;;5014466;28;20092;-59
2021/06/27 01:08:46;;;;;;;4.88;4.38;;;25.30;57.50;;;;;;5013591;28;20459;-58
2021/06/27 01:11:12;;;;;;;4.75;4.25;;;25.30;56.80;;;;;;5033481;28;20017;-59
2021/06/27 01:13:38;;;;;;;4.47;4.07;;;25.30;56.80;;;;;;5034367;28;20029;-60
2021/06/27 01:16:04;;;;;;;4.60;4.15;;;25.30;56.70;;;;;;5033927;28;20661;-60
2021/06/27 01:18:29;;;;;;;5.30;4.40;;;25.30;56.70;;;;;;5034589;28;20030;-60
2021/06/27 01:20:55;;;;;;;5.82;4.20;;;25.30;56.70;;;;;;5033502;28;20083;-61
2021/06/27 01:23:21;;;;;;;4.70;4.10;;;25.30;56.70;;;;;;5034261;28;20375;-62
2021/06/27 01:25:50;;;;;;;4.78;4.38;;;25.30;56.60;;;;;;5033480;28;20057;-60
2021/06/27 01:28:16;;;;;;;4.82;4.30;;;25.30;56.60;;;;;;5034286;28;20026;-60
2021/06/27 01:30:43;;;;;;;5.68;4.93;;;25.30;56.70;;;;;;5033920;28;20439;-59
2021/06/27 01:33:12;;;;;;;4.40;4.00;;;25.30;56.60;;;;;;5026202;28;20030;-60
2021/06/27 01:35:38;;;;;;;5.20;4.22;;;25.30;56.60;;;;;;5014223;28;20030;-60
2021/06/27 01:38:04;;;;;;;4.55;3.90;;;25.30;56.60;;;;;;5013143;28;20380;-60
2021/06/27 01:40:31;;;;;;;4.80;4.30;;;25.30;56.50;;;;;;5025912;28;20038;-59
2021/06/27 01:43:14;;;;;;;3.92;3.53;;;25.30;56.50;;;;;;5032714;28;20489;-59
2021/06/27 01:45:44;;;;;;;4.30;3.75;;;25.30;56.50;;;;;;5033778;28;20034;-60
2021/06/27 01:48:11;;;;;;;4.15;3.75;;;25.30;56.50;;;;;;5048750;28;20538;-59
2021/06/27 01:50:39;;;;;;;6.25;4.20;;;25.30;56.40;;;;;;5033950;28;20566;-59
2021/06/27 01:53:06;;;;;;;3.83;3.53;;;25.30;56.40;;;;;;5032876;28;20065;-60
2021/06/27 01:55:31;;;;;;;4.20;3.65;;;25.30;56.40;;;;;;5033676;28;20030;-60
2021/06/27 01:57:58;;;;;;;4.20;3.83;;;25.30;56.40;;;;;;5032534;28;20033;-61
2021/06/27 02:00:26;;;;;;;4.10;3.60;;;25.30;56.40;;;;;;5033374;28;20022;-61
2021/06/27 02:02:51;;;;;;;4.57;3.67;;;25.30;56.40;;;;;;5027436;28;20025;-61
2021/06/27 02:05:17;;;;;;;4.93;3.55;;;25.30;56.30;;;;;;5013996;28;20029;-61
2021/06/27 02:07:43;;;;;;;4.97;4.13;;;25.30;56.30;;;;;;5013071;28;20048;-59
2021/06/27 02:10:11;;;;;;;5.95;3.35;;;25.30;56.40;;;;;;5023383;28;20457;-60
2021/06/27 02:12:37;;;;;;;4.45;3.85;;;25.30;56.30;;;;;;5033381;28;20065;-59
2021/06/27 02:15:05;;;;;;;4.35;3.95;;;25.30;56.20;;;;;;5032341;28;20037;-60
2021/06/27 02:17:31;;;;;;;3.65;3.28;;;25.30;56.30;;;;;;5033366;28;20108;-60
2021/06/27 02:19:57;;;;;;;5.28;4.07;;;25.30;56.30;;;;;;5032596;28;20510;-60
2021/06/27 02:22:23;;;;;;;4.03;3.67;;;25.30;56.20;;;;;;5033073;28;20099;-60
2021/06/27 02:24:50;;;;;;;4.03;3.63;;;25.30;56.20;;;;;;5032337;28;20438;-59
2021/06/27 02:27:15;;;;;;;4.32;3.38;;;25.30;56.20;;;;;;5032996;28;20514;-60
2021/06/27 02:29:41;;;;;;;5.15;3.40;;;25.30;56.30;;;;;;5033199;28;20100;-60
2021/06/27 02:32:07;;;;;;;4.18;3.60;;;25.30;56.20;;;;;;5031944;28;20021;-60
2021/06/27 02:34:33;;;;;;;4.45;3.45;;;25.30;56.20;;;;;;5013595;28;20037;-60
2021/06/27 02:36:59;;;;;;;5.38;3.50;;;25.30;56.20;;;;;;5031464;28;20038;-60
2021/06/27 02:39:26;;;;;;;4.03;3.38;;;25.30;56.20;;;;;;5032362;28;20074;-60
2021/06/27 02:41:51;;;;;;;3.95;3.42;;;25.30;56.20;;;;;;5031730;28;20026;-60
2021/06/27 02:44:17;;;;;;;3.47;3.17;;;25.30;56.20;;;;;;5032801;28;20041;-61
2021/06/27 02:46:43;;;;;;;4.10;3.70;;;25.30;56.20;;;;;;5032272;28;20474;-59
2021/06/27 02:49:08;;;;;;;3.90;3.58;;;25.30;56.10;;;;;;5032200;28;20022;-60
2021/06/27 02:51:34;;;;;;;3.85;3.40;;;25.30;56.10;;;;;;5032017;28;20446;-60
2021/06/27 02:54:00;;;;;;;5.55;3.53;;;25.30;56.00;;;;;;5031340;28;20053;-60
2021/06/27 02:56:27;;;;;;;3.50;3.20;;;25.30;56.00;;;;;;5032463;28;20026;-59
2021/06/27 02:58:52;;;;;;;4.95;3.95;;;25.30;56.00;;;;;;5031785;28;20356;-60
2021/06/27 03:01:19;;;;;;;4.70;3.25;;;25.30;55.90;;;;;;5032739;28;20104;-60
2021/06/27 03:03:47;;;;;;;4.18;3.60;;;25.30;55.90;;;;;;5019626;28;20406;-58
2021/06/27 03:06:13;;;;;;;3.45;3.15;;;25.30;55.90;;;;;;5012722;28;20034;-60
2021/06/27 03:08:39;;;;;;;4.97;3.38;;;25.30;55.80;;;;;;5013101;28;20060;-60
2021/06/27 03:11:06;;;;;;;4.78;3.70;;;25.30;55.80;;;;;;5029706;28;20033;-60
2021/06/27 03:13:37;;;;;;;3.63;3.33;;;25.30;55.80;;;;;;5047675;28;20087;-61
2021/06/27 03:16:04;;;;;;;3.83;3.00;;;25.30;55.70;;;;;;5031183;28;20810;-60
2021/06/27 03:18:30;;;;;;;3.35;3.05;;;25.30;55.70;;;;;;5031953;28;20029;-60
2021/06/27 03:20:56;;;;;;;3.63;3.28;;;25.30;55.70;;;;;;5031064;28;20475;-60
2021/06/27 03:23:21;;;;;;;4.07;3.22;;;25.30;55.70;;;;;;5032157;28;20072;-60
2021/06/27 03:25:47;;;;;;;5.80;3.65;;;25.30;55.70;;;;;;5031446;28;20479;-59
2021/06/27 03:28:13;;;;;;;4.03;3.63;;;25.30;56.30;;;;;;5031844;28;20030;-60
2021/06/27 03:30:39;;;;;;;3.75;3.45;;;25.30;55.70;;;;;;5030549;28;20033;-60
2021/06/27 03:33:06;;;;;;;4.32;3.50;;;25.30;55.60;;;;;;5024311;28;20025;-60
2021/06/27 03:35:32;;;;;;;3.42;3.10;;;25.30;55.50;;;;;;5014971;28;20505;-60
2021/06/27 03:38:14;;;;;;;3.22;2.92;;;25.30;55.60;;;;;;5030993;28;20033;-60
2021/06/27 03:40:42;;;;;;;3.50;3.00;;;25.30;55.60;;;;;;5031871;28;20055;-60
2021/06/27 03:43:08;;;;;;;3.80;3.38;;;25.20;55.50;;;;;;5031364;28;20036;-60
2021/06/27 03:45:33;;;;;;;3.65;3.28;;;25.20;55.50;;;;;;5031815;28;20030;-60
2021/06/27 03:47:59;;;;;;;4.72;3.38;;;25.20;55.40;;;;;;5030602;28;20033;-60
2021/06/27 03:50:25;;;;;;;3.55;3.22;;;25.30;55.50;;;;;;5031823;28;20474;-59
2021/06/27 03:52:50;;;;;;;4.55;2.85;;;25.30;55.50;;;;;;5030889;28;20136;-60
2021/06/27 03:55:19;;;;;;;3.40;3.10;;;25.20;55.50;;;;;;5031484;28;20029;-60
2021/06/27 03:57:46;;;;;;;3.38;2.97;;;25.30;55.50;;;;;;5031457;28;20033;-59
2021/06/27 04:00:12;;;;;;;3.40;3.10;;;25.30;55.50;;;;;;5031421;28;20040;-61
2021/06/27 04:02:39;;;;;;;3.97;2.83;;;25.20;55.40;;;;;;5028273;28;20037;-60
2021/06/27 04:05:05;;;;;;;4.03;3.20;;;25.20;55.40;;;;;;5015679;28;20084;-60
2021/06/27 04:07:31;;;;;;;3.58;3.00;;;25.20;55.40;;;;;;5015860;28;20029;-60
2021/06/27 04:09:56;;;;;;;3.95;2.92;;;25.30;55.40;;;;;;5023590;28;20048;-61
2021/06/27 04:12:22;;;;;;;4.35;3.03;;;25.30;55.40;;;;;;5035498;28;20076;-60
2021/06/27 04:14:50;;;;;;;3.25;2.92;;;25.30;55.40;;;;;;5035007;28;20121;-59
2021/06/27 04:17:18;;;;;;;3.85;3.45;;;25.30;55.50;;;;;;5035457;28;20033;-59
2021/06/27 04:19:44;;;;;;;4.10;3.45;;;25.30;55.50;;;;;;5035215;28;20030;-59
2021/06/27 04:22:09;;;;;;;3.08;2.80;;;25.30;55.50;;;;;;5034585;28;20491;-60
2021/06/27 04:24:35;;;;;;;3.20;2.90;;;25.30;55.40;;;;;;5035643;28;20029;-60
2021/06/27 04:27:01;;;;;;;4.65;2.80;;;25.30;55.40;;;;;;5034838;28;20098;-59
2021/06/27 04:29:26;;;;;;;3.67;3.25;;;25.20;55.50;;;;;;5035332;28;20021;-61
2021/06/27 04:31:52;;;;;;;3.38;3.08;;;25.30;55.40;;;;;;5034057;28;20025;-59
2021/06/27 04:34:20;;;;;;;3.72;3.03;;;25.20;55.50;;;;;;5018143;28;20022;-60
2021/06/27 04:36:46;;;;;;;3.60;3.30;;;25.20;55.50;;;;;;5014986;28;20117;-59
2021/06/27 04:39:14;;;;;;;3.30;2.80;;;25.20;55.50;;;;;;5017634;28;20018;-61
2021/06/27 04:41:42;;;;;;;3.50;3.15;;;25.20;55.50;;;;;;5035162;28;20021;-61
2021/06/27 04:44:08;;;;;;;3.17;2.88;;;25.30;55.60;;;;;;5034180;28;20029;-61
2021/06/27 04:46:33;;;;;;;3.33;3.03;;;25.30;55.60;;;;;;5034899;28;20057;-61
2021/06/27 04:48:59;;;;;;;3.55;3.25;;;25.20;55.70;;;;;;5049457;28;20522;-60
2021/06/27 04:51:25;;;;;;;3.78;3.05;;;25.30;55.70;;;;;;5035316;28;20112;-60
2021/06/27 04:53:51;;;;;;;4.03;3.53;;;25.20;56.20;;;;;;5032983;28;20136;-61
2021/06/27 04:56:16;;;;;;;4.43;3.20;;;25.30;55.70;;;;;;5034410;28;20115;-60
2021/06/27 04:58:42;;;;;;;3.80;3.40;;;25.30;55.80;;;;;;5034096;28;20081;-60
2021/06/27 05:01:07;;;;;;;4.40;3.35;;;25.20;55.70;;;;;;5033902;28;20033;-60
2021/06/27 05:03:33;;;;;;;5.70;3.50;;;25.20;55.80;;;;;;5023713;28;20033;-60
2021/06/27 05:05:59;;;;;;;3.90;3.38;;;25.20;55.80;;;;;;5013905;28;20030;-59
2021/06/27 05:08:25;;;;;;;4.22;3.42;;;25.20;55.80;;;;;;5014922;28;20029;-60
2021/06/27 05:10:51;;;;;;;5.43;3.30;;;25.20;55.80;;;;;;5029028;28;20036;-59
2021/06/27 05:13:16;;;;;;;4.55;3.72;;;25.20;55.80;;;;;;5034645;28;20144;-59
2021/06/27 05:15:42;;;;;;;3.30;3.00;;;25.30;56.50;;;;;;5034252;28;20116;-60
2021/06/27 05:18:08;;;;;;;4.07;3.30;;;25.30;55.90;;;;;;5033823;28;20076;-60
2021/06/27 05:20:33;;;;;;;4.00;3.33;;;25.20;55.90;;;;;;5034465;28;20416;-60
2021/06/27 05:22:59;;;;;;;5.63;3.47;;;25.30;56.00;;;;;;5033381;28;20111;-59
2021/06/27 05:25:25;;;;;;;5.38;3.50;;;25.20;55.90;;;;;;5034235;28;20037;-59
2021/06/27 05:27:50;;;;;;;3.80;3.40;;;25.20;55.90;;;;;;5033655;28;20037;-61
2021/06/27 05:30:17;;;;;;;4.72;3.50;;;25.20;55.90;;;;;;5034366;28;20025;-59
2021/06/27 05:32:42;;;;;;;4.20;3.78;;;25.20;56.00;;;;;;5030343;28;20052;-61
2021/06/27 05:35:08;;;;;;;3.83;3.47;;;25.20;56.00;;;;;;5013265;28;20026;-60
2021/06/27 05:37:34;;;;;;;4.15;3.40;;;25.20;56.00;;;;;;5013924;28;20553;-60
2021/06/27 05:40:00;;;;;;;4.15;3.75;;;25.30;56.00;;;;;;5021885;28;20104;-60
2021/06/27 05:42:26;;;;;;;3.90;3.42;;;25.20;55.90;;;;;;5033905;28;20030;-61
2021/06/27 05:44:52;;;;;;;3.75;3.30;;;25.20;56.00;;;;;;5032798;28;20104;-59
2021/06/27 05:47:17;;;;;;;5.05;3.47;;;25.30;56.10;;;;;;5033880;28;20398;-60
2021/06/27 05:49:43;;;;;;;4.15;3.50;;;25.30;56.00;;;;;;5033786;28;20033;-61
2021/06/27 05:52:09;;;;;;;3.97;3.58;;;25.30;56.70;;;;;;5032880;28;20406;-60
2021/06/27 05:54:34;;;;;;;3.67;3.38;;;25.20;56.10;;;;;;5033859;28;20519;-60
2021/06/27 05:57:00;;;;;;;3.80;3.47;;;25.30;56.20;;;;;;5033032;28;20025;-59
2021/06/27 05:59:26;;;;;;;4.32;3.92;;;25.20;56.10;;;;;;5033794;28;20035;-59
2021/06/27 06:01:51;;;;;;;4.10;3.70;;;25.20;56.10;;;;;;5032543;28;20032;-60
2021/06/27 06:04:17;;;;;;;4.50;3.80;;;25.30;56.20;;;;;;5017059;28;20088;-61
2021/06/27 06:06:42;;;;;;;5.38;3.72;;;25.30;56.20;;;;;;5013563;28;20030;-61
2021/06/27 06:09:08;;;;;;;5.50;4.00;;;25.30;56.20;;;;;;5014403;28;20030;-60
2021/06/27 06:11:34;;;;;;;4.75;3.72;;;25.30;56.20;;;;;;5033046;28;20034;-60
2021/06/27 06:13:59;;;;;;;4.63;4.13;;;25.30;56.30;;;;;;5032828;28;20028;-61
2021/06/27 06:16:25;;;;;;;3.83;3.45;;;25.30;56.20;;;;;;5033489;28;20030;-59
2021/06/27 06:18:51;;;;;;;4.20;3.72;;;25.20;56.10;;;;;;5032335;28;20049;-59
2021/06/27 06:21:17;;;;;;;4.63;3.85;;;25.30;56.30;;;;;;5032778;28;20075;-59
2021/06/27 06:23:43;;;;;;;4.60;3.83;;;25.30;56.30;;;;;;5033248;28;20037;-60
2021/06/27 06:26:09;;;;;;;4.15;3.40;;;25.30;56.30;;;;;;5031776;28;20030;-60
2021/06/27 06:28:34;;;;;;;4.38;3.78;;;25.30;56.30;;;;;;5033138;28;20455;-61
2021/06/27 06:31:01;;;;;;;4.90;3.58;;;25.30;56.30;;;;;;5031929;28;20104;-61
2021/06/27 06:33:27;;;;;;;4.32;3.92;;;25.30;56.30;;;;;;5026251;28;20481;-60
2021/06/27 06:35:52;;;;;;;3.90;3.53;;;25.30;56.40;;;;;;5031991;28;20026;-60
2021/06/27 06:38:18;;;;;;;3.80;3.33;;;25.30;56.30;;;;;;5033236;28;20026;-60
2021/06/27 06:40:44;;;;;;;4.00;3.60;;;25.30;56.40;;;;;;5032767;28;20033;-59
2021/06/27 06:43:10;;;;;;;4.57;3.97;;;25.30;56.40;;;;;;5031818;28;20503;-60
2021/06/27 06:45:35;;;;;;;3.53;3.15;;;25.30;56.40;;;;;;5032365;28;20034;-60
2021/06/27 06:48:02;;;;;;;3.97;3.17;;;25.30;56.40;;;;;;5031969;28;20093;-60
2021/06/27 06:50:27;;;;;;;4.70;3.28;;;25.30;56.40;;;;;;5032856;28;20109;-60
2021/06/27 06:52:53;;;;;;;4.82;3.72;;;25.30;56.40;;;;;;5031560;28;20057;-59
2021/06/27 06:55:22;;;;;;;4.32;3.60;;;25.30;56.40;;;;;;5032368;28;20096;-59
2021/06/27 06:57:49;;;;;;;3.95;3.55;;;25.30;56.50;;;;;;5031622;28;20112;-59
2021/06/27 07:00:16;;;;;;;4.45;3.67;;;25.30;56.40;;;;;;5032577;28;20481;-63
2021/06/27 07:02:42;;;;;;;7.85;3.92;;;25.30;56.50;;;;;;5028003;28;20033;-62
2021/06/27 07:05:09;;;;;;;3.90;3.53;;;25.20;56.60;;;;;;5011876;28;20076;-61
2021/06/27 07:07:35;;;;;;;5.63;3.88;;;25.20;56.70;;;;;;5012297;28;20041;-61
2021/06/27 07:10:04;;;;;;;6.47;3.97;;;25.20;56.60;;;;;;5019628;28;20033;-61
2021/06/27 07:12:30;;;;;;;4.63;4.10;;;25.30;56.80;;;;;;5021321;28;20103;-61
2021/06/27 07:14:56;;;;;;;3.95;3.58;;;25.30;56.90;;;;;;5010513;28;20018;-64
2021/06/27 07:17:22;;;;;;;4.82;3.38;;;25.20;56.80;;;;;;5011106;28;20028;-63
2021/06/27 07:19:48;;;;;;;4.75;4.25;;;25.20;56.80;;;;;;5010021;28;20112;-60
2021/06/27 07:22:14;;;;;;;6.57;4.55;;;25.00;57.40;;;;;;5010782;28;20041;-63
2021/06/27 07:24:39;;;;;;;7.38;5.00;;;24.70;58.00;;;;;;5011358;28;20042;-63
2021/06/27 07:27:06;;;;;;;6.47;4.95;;;24.60;58.90;;;;;;4999607;28;20034;-63
2021/06/27 07:29:31;;;;;;;7.20;4.57;;;24.50;59.40;;;;;;5001004;28;20030;-64
2021/06/27 07:31:57;;;;;;;8.05;4.40;;;24.50;59.60;;;;;;5008280;28;20029;-63
2021/06/27 07:34:23;;;;;;;5.38;4.13;;;24.40;59.50;;;;;;5008649;28;20439;-63
2021/06/27 07:36:49;;;;;;;4.75;4.18;;;24.50;59.60;;;;;;5000728;28;20414;-61
2021/06/27 07:39:15;;;;;;;5.35;4.18;;;24.50;59.60;;;;;;5001326;28;20389;-63
2021/06/27 07:41:41;;;;;;;7.00;4.22;;;24.50;59.50;;;;;;4999890;28;20031;-62
2021/06/27 07:44:06;;;;;;;7.60;4.35;;;24.50;59.50;;;;;;5000647;28;20033;-63
2021/06/27 07:46:32;;;;;;;6.55;4.47;;;24.50;59.20;;;;;;5000652;28;20018;-64
2021/06/27 07:48:58;;;;;;;6.10;4.50;;;24.40;59.20;;;;;;5010319;28;20076;-62
2021/06/27 07:51:24;;;;;;;4.40;4.00;;;24.50;59.30;;;;;;5010953;28;20436;-62
2021/06/27 07:53:49;;;;;;;27.70;5.50;;;24.60;59.00;;;;;;5009892;28;20048;-63
2021/06/27 07:56:15;;;;;;;4.68;4.18;;;24.60;58.70;;;;;;5001280;28;20092;-62
2021/06/27 07:58:41;;;;;;;4.85;3.97;;;24.60;58.90;;;;;;5001920;28;20468;-62
2021/06/27 08:01:06;;;;;;;4.95;3.88;;;24.60;58.70;;;;;;5002084;28;20026;-62
2021/06/27 08:03:32;;;;;;;5.20;3.92;;;24.60;58.70;;;;;;5008303;28;20034;-62
2021/06/27 08:05:58;;;;;;;5.15;3.90;;;24.70;58.90;;;;;;5010065;28;20137;-62
2021/06/27 08:08:23;;;;;;;6.05;4.15;;;24.70;58.80;;;;;;5009639;28;20034;-62
2021/06/27 08:10:49;;;;;;;6.28;4.05;;;24.70;58.50;;;;;;5011239;28;20029;-66
2021/06/27 08:13:15;;;;;;;5.10;4.18;;;24.70;58.30;;;;;;5011531;28;20045;-63
2021/06/27 08:15:40;;;;;;;7.25;3.80;;;24.80;58.20;;;;;;5012048;28;20026;-63
2021/06/27 08:18:06;;;;;;;5.88;3.63;;;24.80;58.30;;;;;;5000891;28;20030;-63
2021/06/27 08:20:32;;;;;;;4.28;3.70;;;24.90;58.10;;;;;;5030903;28;20494;-61
2021/06/27 08:22:57;;;;;;;7.85;3.80;;;24.90;58.20;;;;;;5030463;28;20033;-62
2021/06/27 08:25:24;;;;;;;6.95;3.90;;;24.90;58.20;;;;;;5031618;28;20036;-63
2021/06/27 08:27:50;;;;;;;4.60;3.30;;;25.20;56.60;;;;;;5030511;28;20486;-63
2021/06/27 08:30:18;;;;;;;7.00;3.78;;;25.20;56.40;;;;;;5031446;28;20040;-62
2021/06/27 08:32:45;;;;;;;5.32;3.70;;;25.10;56.90;;;;;;5027474;28;20032;-62
2021/06/27 08:35:17;;;;;;;4.32;3.45;;;25.10;57.20;;;;;;5016409;28;20501;-62
2021/06/27 08:37:43;;;;;;;7.50;3.53;;;25.10;57.30;;;;;;5009751;28;20033;-64
2021/06/27 08:40:11;;;;;;;5.70;3.60;;;25.10;57.30;;;;;;5010427;28;20022;-61
2021/06/27 08:42:37;;;;;;;6.03;3.33;;;25.10;57.20;;;;;;5011433;28;20119;-61
2021/06/27 08:45:09;;;;;;;6.07;3.50;;;25.10;57.00;;;;;;5010572;28;20497;-62
2021/06/27 08:47:36;;;;;;;3.45;3.15;;;25.10;57.00;;;;;;5011903;28;20121;-60
2021/06/27 08:50:05;;;;;;;4.43;3.08;;;25.10;57.10;;;;;;5013369;28;20040;-61
2021/06/27 08:52:31;;;;;;;8.50;3.03;;;25.20;57.10;;;;;;5015422;28;20050;-61
2021/06/27 08:54:57;;;;;;;5.65;3.10;;;25.20;57.30;;;;;;5014268;28;20025;-62
2021/06/27 08:57:23;;;;;;;4.18;3.10;;;25.30;57.00;;;;;;5015366;28;20068;-62
2021/06/27 08:59:48;;;;;;;4.65;2.90;;;25.30;56.80;;;;;;5014794;28;20463;-60
2021/06/27 09:02:14;;;;;;;3.10;2.75;;;25.30;56.30;;;;;;5018431;28;20057;-61
2021/06/27 09:04:42;;;;;;;3.42;2.95;;;25.40;56.10;;;;;;5015177;28;20030;-62
2021/06/27 09:07:30;;;;;;;4.97;3.28;;;25.50;56.10;;;;;;5014640;28;20037;-62
2021/06/27 09:10:16;;;;;;;3.42;2.75;;;25.40;54.50;;;;;;4994504;28;20018;-60
2021/06/27 09:12:56;;;;;;;2.92;2.63;;;25.50;54.00;;;;;;4995605;28;20034;-60
2021/06/27 09:15:49;;;;;;;2.33;2.13;;;25.70;53.30;;;;;;4995100;28;20037;-61
2021/06/27 09:18:15;;;;;;;3.25;2.70;;;25.70;53.20;;;;;;4995399;28;20174;-62
2021/06/27 09:20:48;;;;;;;2.70;2.50;;;25.70;53.80;;;;;;4995298;28;20117;-62
2021/06/27 09:23:16;;;;;;;3.92;2.53;;;25.80;53.90;;;;;;4995122;28;20077;-61
2021/06/27 09:25:43;;;;;;;6.50;3.05;;;25.90;53.50;;;;;;4994649;28;20037;-61
2021/06/27 09:28:18;;;;;;;3.67;2.47;;;25.90;53.50;;;;;;4994126;28;20275;-63
2021/06/27 09:30:50;;;;;;;3.92;2.60;;;26.00;51.90;;;;;;4995009;28;20030;-62
2021/06/27 09:33:22;;;;;;;2.88;2.35;;;26.00;52.20;;;;;;5011053;28;20034;-64
2021/06/27 09:35:56;;;;;;;3.40;2.20;;;25.90;52.00;;;;;;5013976;28;20113;-63
2021/06/27 09:38:25;;;;;;;4.03;2.38;;;25.90;51.70;;;;;;5014437;28;20112;-63
2021/06/27 09:40:56;;;;;;;2.42;2.08;;;25.80;52.30;;;;;;5013517;28;20030;-62
2021/06/27 09:43:22;;;;;;;4.03;2.38;;;25.70;51.00;;;;;;5014199;28;20590;-64
2021/06/27 09:45:52;;;;;;;2.22;1.95;;;25.80;51.00;;;;;;5013485;28;20034;-60
2021/06/27 09:48:17;;;;;;;2.38;2.00;;;25.90;51.30;;;;;;5014280;28;20026;-63
2021/06/27 09:50:43;;;;;;;2.75;2.22;;;25.90;51.30;;;;;;5013743;28;20383;-62
2021/06/27 09:53:30;;;;;;;2.38;2.17;;;25.90;50.80;;;;;;5013493;28;20557;-62
2021/06/27 09:55:58;;;;;;;3.15;2.28;;;26.10;51.10;;;;;;5013103;28;20101;-61
2021/06/27 09:58:24;;;;;;;3.38;2.25;;;26.00;51.30;;;;;;5014170;28;20029;-62
2021/06/27 10:00:49;;;;;;;2.85;1.90;;;26.10;51.40;;;;;;5011450;28;20483;-59
2021/06/27 10:03:15;;;;;;;2.78;2.33;;;26.00;51.40;;;;;;5016316;28;20038;-62
2021/06/27 10:05:41;;;;;;;2.50;2.30;;;26.10;51.30;;;;;;5013165;28;20380;-61
2021/06/27 10:08:06;;;;;;;2.10;1.90;;;26.10;50.80;;;;;;5012179;28;20467;-62
2021/06/27 10:10:32;;;;;;;4.15;2.20;;;26.30;50.20;;;;;;5012905;28;20022;-62
2021/06/27 10:12:59;;;;;;;2.65;2.22;;;26.40;50.30;;;;;;5011631;28;20116;-62
2021/06/27 10:15:25;;;;;;;4.78;2.38;;;26.30;50.80;;;;;;5012757;28;20120;-62
2021/06/27 10:17:51;;;;;;;2.92;2.28;;;26.40;50.30;;;;;;5012260;28;20105;-60
2021/06/27 10:20:18;;;;;;;2.90;2.15;;;26.40;50.50;;;;;;5012560;28;20034;-61
2021/06/27 10:22:44;;;;;;;3.80;2.20;;;26.40;50.30;;;;;;5012661;28;20074;-61
2021/06/27 10:25:12;;;;;;;2.63;2.00;;;26.20;50.00;;;;;;5011704;28;20060;-62
2021/06/27 10:27:38;;;;;;;4.93;2.20;;;26.10;50.40;;;;;;5012548;28;20463;-64
2021/06/27 10:30:07;;;;;;;4.40;2.13;;;26.30;50.60;;;;;;5011859;28;20034;-60
2021/06/27 10:32:38;;;;;;;4.30;2.17;;;26.40;50.80;;;;;;5014885;28;20037;-61
2021/06/27 10:35:07;;;;;;;4.93;2.20;;;26.40;51.10;;;;;;5017629;28;20029;-62
2021/06/27 10:37:40;;;;;;;3.88;1.92;;;26.50;51.00;;;;;;5012631;28;20060;-62
2021/06/27 10:40:12;;;;;;;5.30;2.08;;;26.50;51.70;;;;;;5011649;28;20470;-62
2021/06/27 10:42:50;;;;;;;2.20;1.90;;;26.50;51.10;;;;;;5012246;28;20084;-61
2021/06/27 10:45:17;;;;;;;3.03;2.05;;;26.60;51.00;;;;;;5012069;28;20030;-62
2021/06/27 10:47:43;;;;;;;4.85;1.90;;;26.60;50.70;;;;;;5012359;28;20113;-61
2021/06/27 10:50:14;;;;;;;2.03;1.83;;;26.60;50.60;;;;;;5011405;28;20253;-62
2021/06/27 10:52:54;;;;;;;2.45;2.25;;;26.60;50.60;;;;;;5012590;28;20050;-62
2021/06/27 10:55:24;;;;;;;2.75;1.95;;;26.70;50.80;;;;;;5012116;28;20038;-61
2021/06/27 10:57:56;;;;;;;2.25;1.98;;;26.70;50.60;;;;;;5011531;28;20052;-60
2021/06/27 11:00:25;;;;;;;3.25;1.83;;;26.60;50.60;;;;;;5012075;28;20073;-62
2021/06/27 11:02:51;;;;;;;3.53;2.00;;;26.70;50.50;;;;;;5011754;28;20022;-60
2021/06/27 11:05:29;;;;;;;3.67;2.00;;;26.80;50.40;;;;;;5011546;28;20100;-61
2021/06/27 11:07:56;;;;;;;2.28;2.00;;;26.80;50.10;;;;;;5012600;28;20032;-61
2021/06/27 11:10:22;;;;;;;2.47;1.70;;;26.90;49.60;;;;;;5028727;28;20037;-61
2021/06/27 11:13:03;;;;;;;1.92;1.70;;;26.90;49.70;;;;;;5026925;28;20490;-59
2021/06/27 11:15:38;;;;;;;2.00;1.60;;;26.90;49.70;;;;;;5027361;28;20367;-61
2021/06/27 11:18:03;;;;;;;1.98;1.73;;;26.80;49.80;;;;;;5011191;28;20034;-62
2021/06/27 11:20:47;;;;;;;2.22;1.77;;;26.80;50.00;;;;;;5012020;28;20026;-61
2021/06/27 11:23:12;;;;;;;1.67;1.58;;;26.80;50.30;;;;;;5011107;28;20046;-64
2021/06/27 11:25:40;;;;;;;2.05;1.60;;;26.80;50.40;;;;;;5011936;28;20036;-65
2021/06/27 11:28:21;;;;;;;1.95;1.65;;;26.80;50.70;;;;;;5042308;28;20391;-64
2021/06/27 11:30:52;;;;;;;4.00;1.65;;;26.80;50.90;;;;;;5011799;28;20033;-60
2021/06/27 11:33:26;;;;;;;2.95;1.60;;;26.80;50.90;;;;;;5010736;28;20037;-64
2021/06/27 11:35:56;;;;;;;2.20;1.85;;;26.80;50.80;;;;;;5011002;28;20028;-60
2021/06/27 11:38:48;;;;;;;1.98;1.77;;;26.80;50.80;;;;;;5012204;28;20022;-62
2021/06/27 11:41:20;;;;;;;2.35;1.60;;;26.80;50.80;;;;;;5011171;28;20057;-64
2021/06/27 11:44:03;;;;;;;2.35;1.90;;;26.90;50.80;;;;;;5012221;28;20117;-63
2021/06/27 11:46:45;;;;;;;1.73;1.60;;;27.00;50.30;;;;;;5012475;28;20041;-64
2021/06/27 11:49:14;;;;;;;3.53;1.98;;;27.00;50.20;;;;;;5010447;28;20041;-62
2021/06/27 11:51:45;;;;;;;2.08;1.50;;;27.00;50.10;;;;;;5015456;28;20029;-62
2021/06/27 11:54:14;;;;;;;2.72;2.00;;;27.00;49.90;;;;;;5010880;28;20030;-65
2021/06/27 11:57:03;;;;;;;2.25;1.73;;;27.00;50.00;;;;;;5011658;28;20026;-64
2021/06/27 11:59:37;;;;;;;2.65;1.70;;;27.10;49.90;;;;;;5011161;28;20168;-63
2021/06/27 12:02:09;;;;;;;2.75;1.70;;;27.00;50.00;;;;;;5012090;28;20103;-64
2021/06/27 12:04:44;;;;;;;2.20;1.63;;;27.00;50.20;;;;;;5009315;28;20054;-64
2021/06/27 12:07:45;;;;;;;2.10;1.77;;;27.00;50.00;;;;;;5010540;28;20033;-63
2021/06/27 12:10:20;;;;;;;1.90;1.60;;;27.10;50.30;;;;;;5010545;28;20037;-64
2021/06/27 12:12:58;;;;;;;1.75;1.65;;;27.00;50.40;;;;;;5011216;28;20109;-63
2021/06/27 12:15:27;;;;;;;2.03;1.80;;;27.00;50.50;;;;;;5011282;28;20038;-63
2021/06/27 12:18:05;;;;;;;2.03;1.83;;;27.10;50.30;;;;;;5010629;28;20472;-63
2021/06/27 12:20:38;;;;;;;1.75;1.58;;;27.10;50.30;;;;;;5010807;28;20041;-64
2021/06/27 12:23:09;;;;;;;1.83;1.65;;;27.20;50.20;;;;;;5010133;28;20041;-64
2021/06/27 12:25:43;;;;;;;2.05;1.85;;;27.20;50.50;;;;;;5014223;28;20113;-65
2021/06/27 12:28:16;;;;;;;3.65;1.95;;;27.20;50.20;;;;;;5009870;28;20076;-66
2021/06/27 12:30:48;;;;;;;1.88;1.40;;;27.10;50.50;;;;;;5022375;28;20025;-64
2021/06/27 12:33:18;;;;;;;2.08;1.80;;;27.00;50.90;;;;;;5014745;28;20116;-62
2021/06/27 12:35:46;;;;;;;3.20;1.58;;;27.00;50.30;;;;;;5014877;28;20029;-63
2021/06/27 12:38:13;;;;;;;1.60;1.50;;;27.00;50.10;;;;;;5014252;28;20025;-63
2021/06/27 12:40:48;;;;;;;4.45;1.67;;;27.00;50.70;;;;;;5014118;28;20084;-63
2021/06/27 12:43:30;;;;;;;4.03;1.90;;;27.00;50.70;;;;;;5014278;28;20037;-63
2021/06/27 12:46:41;;;;;;;1.77;1.67;;;27.10;50.40;;;;;;5014027;28;20033;-62
2021/06/27 12:49:10;;;;;;;2.58;1.60;;;27.10;50.30;;;;;;4984799;28;20164;-64
2021/06/27 12:51:42;;;;;;;1.73;1.42;;;27.10;50.30;;;;;;5015037;28;20029;-68